createdAt,value
2022-12-27T00:00:44.484Z,2.70
2022-12-27T00:06:07.181Z,2.60
2022-12-27T00:11:16.333Z,3.10
2022-12-27T00:16:21.423Z,2.70
2022-12-27T00:21:25.026Z,2.30
2022-12-27T00:26:31.182Z,2.10
2022-12-27T00:31:34.366Z,2.60
2022-12-27T00:41:40.154Z,2.00
2022-12-27T00:46:42.821Z,2.40
2022-12-27T00:51:45.533Z,4.30
2022-12-27T00:56:48.264Z,2.00
2022-12-27T01:01:51.236Z,2.80
2022-12-27T01:06:54.200Z,3.60
2022-12-27T01:11:56.943Z,2.40
2022-12-27T01:16:59.861Z,1.60
2022-12-27T01:22:03.712Z,2.20
2022-12-27T01:27:06.460Z,2.20
2022-12-27T01:32:09.514Z,4.10
2022-12-27T01:37:12.304Z,2.90
2022-12-27T01:42:36.015Z,2.70
2022-12-27T01:47:53.670Z,2.80
2022-12-27T01:53:06.838Z,2.50
2022-12-27T01:58:50.037Z,2.10
2022-12-27T02:03:57.973Z,3.10
2022-12-27T02:09:33.038Z,2.90
2022-12-27T02:14:43.112Z,2.20
2022-12-27T02:20:14.008Z,2.70
2022-12-27T02:25:33.092Z,1.80
2022-12-27T02:30:37.163Z,1.90
2022-12-27T02:35:42.639Z,1.50
2022-12-27T02:41:05.938Z,1.80
2022-12-27T02:46:36.609Z,2.60
2022-12-27T02:52:04.164Z,2.60
2022-12-27T02:57:14.745Z,2.70
2022-12-27T03:02:54.332Z,2.80
2022-12-27T03:08:35.105Z,2.40
2022-12-27T03:14:05.729Z,1.80
2022-12-27T03:19:39.683Z,2.10
2022-12-27T03:25:01.802Z,2.00
2022-12-27T03:30:27.555Z,2.10
2022-12-27T03:35:33.524Z,2.60
2022-12-27T03:41:20.182Z,2.60
2022-12-27T03:46:34.274Z,2.30
2022-12-27T03:51:50.235Z,2.60
2022-12-27T03:56:59.567Z,2.90
2022-12-27T04:02:04.026Z,1.70
2022-12-27T04:07:07.424Z,3.10
2022-12-27T04:17:50.690Z,2.60
2022-12-27T04:23:12.064Z,2.20
2022-12-27T04:28:33.595Z,2.30
2022-12-27T04:33:55.300Z,2.10
2022-12-27T04:38:58.050Z,2.60
2022-12-27T04:44:19.604Z,1.90
2022-12-27T04:49:44.034Z,2.30
2022-12-27T04:54:58.868Z,2.70
2022-12-27T05:00:20.373Z,1.90
2022-12-27T05:05:24.771Z,2.30
2022-12-27T05:10:46.499Z,2.70
2022-12-27T05:15:49.952Z,2.90
2022-12-27T05:20:53.241Z,2.30
2022-12-27T05:25:56.183Z,2.60
2022-12-27T05:31:02.924Z,3.50
2022-12-27T05:36:06.458Z,2.30
2022-12-27T05:41:09.347Z,2.20
2022-12-27T05:46:15.675Z,2.70
2022-12-27T05:51:21.057Z,2.60
2022-12-27T05:56:23.863Z,1.90
2022-12-27T06:01:26.587Z,2.60
2022-12-27T06:06:29.508Z,3.40
2022-12-27T06:11:32.620Z,2.40
2022-12-27T06:16:37.199Z,2.50
2022-12-27T06:21:40.927Z,2.50
2022-12-27T06:26:43.825Z,2.50
2022-12-27T06:31:47.214Z,2.50
2022-12-27T06:36:51.514Z,3.00
2022-12-27T06:41:55.385Z,3.50
2022-12-27T06:46:58.109Z,3.90
2022-12-27T06:52:00.790Z,4.20
2022-12-27T06:57:03.570Z,4.30
2022-12-27T07:02:06.864Z,4.00
2022-12-27T07:07:15.280Z,3.50
2022-12-27T07:12:18.461Z,4.20
2022-12-27T07:17:21.130Z,4.70
2022-12-27T07:22:23.837Z,5.30
2022-12-27T07:27:26.608Z,4.20
2022-12-27T07:32:29.313Z,4.50
2022-12-27T07:37:32.054Z,4.10
2022-12-27T07:42:34.790Z,4.00
2022-12-27T07:47:50.153Z,4.50
2022-12-27T07:52:52.902Z,4.40
2022-12-27T07:57:55.641Z,4.20
2022-12-27T08:02:58.398Z,4.70
2022-12-27T08:08:03.555Z,6.00
2022-12-27T08:13:06.556Z,5.30
2022-12-27T08:18:09.720Z,5.00
2022-12-27T08:28:18.421Z,5.30
2022-12-27T08:33:21.122Z,7.60
2022-12-27T08:38:23.956Z,7.80
2022-12-27T08:43:26.815Z,7.00
2022-12-27T08:48:32.532Z,6.60
2022-12-27T08:53:35.806Z,6.80
2022-12-27T09:03:41.269Z,7.30
2022-12-27T09:08:46.014Z,7.50
2022-12-27T09:13:49.120Z,6.70
2022-12-27T09:18:54.050Z,6.80
2022-12-27T09:23:57.065Z,6.00
2022-12-27T09:29:00.574Z,5.90
2022-12-27T09:34:03.431Z,5.30
2022-12-27T09:39:06.451Z,6.80
2022-12-27T09:44:16.441Z,6.60
2022-12-27T09:49:41.367Z,4.10
2022-12-27T09:55:04.348Z,4.70
2022-12-27T10:00:32.766Z,6.00
2022-12-27T10:05:39.714Z,4.10
2022-12-27T10:10:54.084Z,3.50
2022-12-27T10:16:04.788Z,4.50
2022-12-27T10:21:17.994Z,5.40
2022-12-27T10:26:21.226Z,5.00
2022-12-27T10:36:31.007Z,4.70
2022-12-27T10:41:54.249Z,4.90
2022-12-27T10:46:57.436Z,4.50
2022-12-27T10:57:27.858Z,5.20
2022-12-27T11:02:30.686Z,4.40
2022-12-27T11:07:34.682Z,4.80
2022-12-27T11:12:37.926Z,4.20
2022-12-27T11:22:58.190Z,4.40
2022-12-27T11:28:05.355Z,4.90
2022-12-27T11:33:42.098Z,5.30
2022-12-27T11:38:45.403Z,5.40
2022-12-27T11:48:58.727Z,7.90
2022-12-27T11:54:07.544Z,4.70
2022-12-27T11:59:25.675Z,7.00
2022-12-27T12:04:51.002Z,6.20
2022-12-27T12:10:24.781Z,4.50
2022-12-27T12:16:04.054Z,6.30
2022-12-27T12:21:57.673Z,6.20
2022-12-27T12:27:24.819Z,6.10
2022-12-27T12:32:44.719Z,5.70
2022-12-27T12:38:04.362Z,5.20
2022-12-27T12:43:27.285Z,5.80
2022-12-27T12:48:42.151Z,4.00
2022-12-27T12:54:02.762Z,5.00
2022-12-27T12:59:24.085Z,6.50
2022-12-27T13:04:42.060Z,7.30
2022-12-27T13:10:15.427Z,11.50
2022-12-27T13:15:33.238Z,5.30
2022-12-27T13:20:35.944Z,7.00
2022-12-27T13:26:03.116Z,6.40
2022-12-27T13:31:10.516Z,6.80
2022-12-27T13:36:24.264Z,5.90
2022-12-27T13:41:42.127Z,5.70
2022-12-27T13:47:05.487Z,7.10
2022-12-27T13:52:59.447Z,5.80
2022-12-27T13:58:27.997Z,9.10
2022-12-27T14:03:33.553Z,6.40
2022-12-27T14:09:15.110Z,6.80
2022-12-27T14:14:20.244Z,9.20
2022-12-27T14:19:44.727Z,8.60
2022-12-27T14:25:21.130Z,7.20
2022-12-27T14:30:42.023Z,6.30
2022-12-27T14:36:16.548Z,9.20
2022-12-27T14:41:22.179Z,7.50
2022-12-27T14:46:30.795Z,9.40
2022-12-27T14:52:03.624Z,10.40
2022-12-27T14:57:24.519Z,10.00
2022-12-27T15:02:57.503Z,11.70
2022-12-27T15:08:19.821Z,10.90
2022-12-27T15:13:40.722Z,11.90
2022-12-27T15:18:49.476Z,10.40
2022-12-27T15:24:01.094Z,9.10
2022-12-27T15:29:22.336Z,9.60
2022-12-27T15:34:41.195Z,7.80
2022-12-27T15:39:43.863Z,8.70
2022-12-27T15:45:05.439Z,7.50
2022-12-27T15:50:26.589Z,8.00
2022-12-27T15:55:35.247Z,9.10
2022-12-27T16:00:38.583Z,8.30
2022-12-27T16:10:49.730Z,7.00
2022-12-27T16:15:54.443Z,8.70
2022-12-27T16:21:11.040Z,9.70
2022-12-27T16:26:19.782Z,7.60
2022-12-27T16:31:26.421Z,6.10
2022-12-27T16:36:36.266Z,7.70
2022-12-27T16:41:54.440Z,6.50
2022-12-27T16:47:03.837Z,7.10
2022-12-27T16:52:12.751Z,8.90
2022-12-27T16:57:24.440Z,7.80
2022-12-27T17:02:40.031Z,6.90
2022-12-27T17:07:55.920Z,10.10
2022-12-27T17:13:16.102Z,6.10
2022-12-27T17:18:38.575Z,6.90
2022-12-27T17:23:46.096Z,6.30
2022-12-27T17:29:15.145Z,7.30
2022-12-27T17:34:36.861Z,7.50
2022-12-27T17:40:18.939Z,10.80
2022-12-27T17:45:41.922Z,4.60
2022-12-27T17:50:46.568Z,5.10
2022-12-27T17:56:41.698Z,5.90
2022-12-27T18:01:49.618Z,9.00
2022-12-27T18:07:02.123Z,5.60
2022-12-27T18:12:11.914Z,6.30
2022-12-27T18:17:29.690Z,5.10
2022-12-27T18:22:32.394Z,4.20
2022-12-27T18:27:35.207Z,6.10
2022-12-27T18:32:37.940Z,7.30
2022-12-27T18:37:40.720Z,7.60
2022-12-27T18:42:45.039Z,5.50
2022-12-27T18:47:50.675Z,5.70
2022-12-27T18:53:05.842Z,8.50
2022-12-27T18:58:20.875Z,5.90
2022-12-27T19:03:23.929Z,7.80
2022-12-27T19:08:35.882Z,6.70
2022-12-27T19:13:50.434Z,8.70
2022-12-27T19:18:56.407Z,9.10
2022-12-27T19:24:19.613Z,9.60
2022-12-27T19:29:28.599Z,10.20
2022-12-27T19:34:42.779Z,8.90
2022-12-27T19:39:47.807Z,12.40
2022-12-27T19:44:50.570Z,10.20
2022-12-27T19:49:53.579Z,12.20
2022-12-27T19:55:04.844Z,15.10
2022-12-27T20:00:16.821Z,11.30
2022-12-27T20:06:14.443Z,9.50
2022-12-27T20:10:42.233Z,12.10
2022-12-27T20:15:45.005Z,10.90
2022-12-27T20:20:48.664Z,8.80
2022-12-27T20:25:51.391Z,10.50
2022-12-27T20:30:54.431Z,10.20
2022-12-27T20:35:58.276Z,12.10
2022-12-27T20:41:13.315Z,11.70
2022-12-27T20:46:17.939Z,10.40
2022-12-27T20:51:27.510Z,8.30
2022-12-27T20:56:31.052Z,11.50
2022-12-27T21:01:33.878Z,12.30
2022-12-27T21:06:37.411Z,9.30
2022-12-27T21:11:40.150Z,13.50
2022-12-27T21:16:42.862Z,14.00
2022-12-27T21:21:45.652Z,9.50
2022-12-27T21:26:54.575Z,13.20
2022-12-27T21:31:59.370Z,14.60
2022-12-27T21:37:07.456Z,9.60
2022-12-27T21:42:14.651Z,12.00
2022-12-27T21:47:17.362Z,11.70
2022-12-27T21:52:20.073Z,11.90
2022-12-27T21:57:22.803Z,10.40
2022-12-27T22:02:25.677Z,9.80
2022-12-27T22:07:28.628Z,14.30
2022-12-27T22:12:31.359Z,7.90
2022-12-27T22:17:34.095Z,10.60
2022-12-27T22:22:36.840Z,12.20
2022-12-27T22:27:39.541Z,13.10
2022-12-27T22:32:42.250Z,7.80
2022-12-27T22:37:44.998Z,10.90
2022-12-27T22:42:47.729Z,6.70
2022-12-27T22:47:50.850Z,9.30
2022-12-27T22:57:56.285Z,9.20
2022-12-27T23:02:58.990Z,8.40
2022-12-27T23:08:04.490Z,9.30
2022-12-27T23:13:09.710Z,7.70
2022-12-27T23:18:12.444Z,8.50
2022-12-27T23:23:15.572Z,6.70
2022-12-27T23:28:18.353Z,8.90
2022-12-27T23:33:21.173Z,6.60
2022-12-27T23:38:23.929Z,5.90
2022-12-27T23:43:53.279Z,7.00
2022-12-27T23:49:00.832Z,7.90
2022-12-27T23:54:03.675Z,5.70
2022-12-27T23:59:08.245Z,6.10
